createdAt,value
2018-02-14T00:00:53.885Z,80.56
2018-02-14T00:01:53.858Z,80.37
2018-02-14T00:02:53.944Z,80.37
2018-02-14T00:03:53.803Z,80.27
2018-02-14T00:04:53.776Z,80.18
2018-02-14T00:05:53.754Z,80.56
2018-02-14T00:06:53.723Z,80.84
2018-02-14T00:07:53.703Z,80.75
2018-02-14T00:08:53.676Z,80.75
2018-02-14T00:09:53.645Z,80.75
2018-02-14T00:10:53.618Z,80.65
2018-02-14T00:11:53.592Z,80.94
2018-02-14T00:12:53.565Z,80.75
2018-02-14T00:13:53.542Z,81.03
2018-02-14T00:14:53.520Z,81.60
2018-02-14T00:15:53.488Z,81.03
2018-02-14T00:16:53.462Z,81.41
2018-02-14T00:17:53.437Z,81.03
2018-02-14T00:18:53.493Z,80.84
2018-02-14T00:19:53.382Z,80.65
2018-02-14T00:20:53.355Z,80.94
2018-02-14T00:21:53.326Z,80.75
2018-02-14T00:22:53.313Z,80.75
2018-02-14T00:23:53.279Z,81.51
2018-02-14T00:24:53.263Z,81.51
2018-02-14T00:25:53.222Z,81.79
2018-02-14T00:26:53.196Z,81.98
2018-02-14T00:27:53.175Z,81.60
2018-02-14T00:28:53.241Z,82.26
2018-02-14T00:29:53.119Z,82.17
2018-02-14T00:30:53.098Z,82.45
2018-02-14T00:31:53.071Z,82.26
2018-02-14T00:32:53.034Z,82.26
2018-02-14T00:33:53.012Z,81.98
2018-02-14T00:34:52.982Z,82.35
2018-02-14T00:35:52.964Z,82.26
2018-02-14T00:36:52.937Z,82.07
2018-02-14T00:37:52.903Z,82.35
2018-02-14T00:38:52.874Z,82.17
2018-02-14T00:39:52.848Z,82.35
2018-02-14T00:40:52.822Z,81.98
2018-02-14T00:41:52.799Z,82.26
2018-02-14T00:42:52.767Z,82.26
2018-02-14T00:43:52.744Z,82.07
2018-02-14T00:44:52.719Z,82.17
2018-02-14T00:45:52.688Z,82.17
2018-02-14T00:46:52.669Z,82.26
2018-02-14T00:47:52.637Z,82.26
2018-02-14T00:48:52.606Z,82.26
2018-02-14T00:49:52.590Z,82.35
2018-02-14T00:50:52.560Z,82.35
2018-02-14T00:51:52.530Z,82.64
2018-02-14T00:52:52.499Z,82.07
2018-02-14T00:53:52.476Z,82.17
2018-02-14T00:54:52.447Z,82.54
2018-02-14T00:55:52.422Z,82.79
2018-02-14T00:56:52.523Z,82.60
2018-02-14T00:57:52.380Z,82.73
2018-02-14T00:58:52.339Z,83.07
2018-02-14T00:59:52.438Z,82.92
2018-02-14T01:00:52.288Z,82.64
2018-02-14T01:01:52.271Z,82.88
2018-02-14T01:02:52.240Z,82.88
2018-02-14T01:03:52.208Z,82.88
2018-02-14T01:04:52.225Z,83.02
2018-02-14T01:05:52.155Z,82.60
2018-02-14T01:06:52.125Z,82.79
2018-02-14T01:07:52.101Z,82.88
2018-02-14T01:08:52.074Z,82.79
2018-02-14T01:09:52.048Z,82.83
2018-02-14T01:10:52.112Z,83.07
2018-02-14T01:11:51.994Z,83.26
2018-02-14T01:12:51.966Z,83.07
2018-02-14T01:13:51.999Z,83.07
2018-02-14T01:14:51.918Z,83.07
2018-02-14T01:15:51.887Z,82.98
2018-02-14T01:16:51.860Z,83.17
2018-02-14T01:17:51.833Z,83.17
2018-02-14T01:18:51.805Z,83.26
2018-02-14T01:19:51.779Z,83.17
2018-02-14T01:20:51.755Z,82.98
2018-02-14T01:21:51.729Z,83.07
2018-02-14T01:22:51.699Z,83.17
2018-02-14T01:23:51.682Z,83.11
2018-02-14T01:24:51.645Z,82.98
2018-02-14T01:25:51.619Z,83.26
2018-02-14T01:26:51.597Z,83.17
2018-02-14T01:27:51.565Z,83.26
2018-02-14T01:28:51.536Z,83.45
2018-02-14T01:29:51.512Z,83.45
2018-02-14T01:30:51.486Z,83.92
2018-02-14T01:31:51.457Z,83.73
2018-02-14T01:32:51.437Z,83.54
2018-02-14T01:33:51.405Z,83.54
2018-02-14T01:34:51.376Z,83.83
2018-02-14T01:35:51.466Z,83.73
2018-02-14T01:36:51.323Z,83.64
2018-02-14T01:37:51.299Z,83.83
2018-02-14T01:38:51.322Z,83.64
2018-02-14T01:39:51.243Z,83.73
2018-02-14T01:40:51.216Z,83.83
2018-02-14T01:41:51.193Z,83.92
2018-02-14T01:42:51.164Z,83.64
2018-02-14T01:43:51.135Z,83.73
2018-02-14T01:44:51.111Z,83.73
2018-02-14T01:45:51.080Z,83.73
2018-02-14T01:46:51.056Z,83.83
2018-02-14T01:47:51.031Z,83.83
2018-02-14T01:48:51.000Z,83.64
2018-02-14T01:49:50.979Z,83.64
2018-02-14T01:50:50.950Z,83.54
2018-02-14T01:51:50.920Z,83.73
2018-02-14T01:52:50.903Z,83.54
2018-02-14T01:53:50.865Z,83.64
2018-02-14T01:54:50.840Z,83.92
2018-02-14T01:55:50.816Z,83.92
2018-02-14T01:56:50.784Z,83.92
2018-02-14T01:57:50.769Z,83.92
2018-02-14T01:58:50.731Z,83.64
2018-02-14T01:59:50.704Z,84.39
2018-02-14T02:00:50.702Z,84.30
2018-02-14T02:01:50.649Z,84.30
2018-02-14T02:02:50.622Z,83.64
2018-02-14T02:03:50.597Z,83.83
2018-02-14T02:04:50.578Z,83.73
2018-02-14T02:05:50.543Z,84.01
2018-02-14T02:06:50.513Z,83.92
2018-02-14T02:07:50.488Z,83.83
2018-02-14T02:08:50.520Z,83.92
2018-02-14T02:09:50.432Z,83.73
2018-02-14T02:10:50.407Z,83.92
2018-02-14T02:11:50.432Z,83.83
2018-02-14T02:12:50.352Z,83.92
2018-02-14T02:13:50.327Z,84.20
2018-02-14T02:14:50.296Z,84.39
2018-02-14T02:15:50.271Z,84.30
2018-02-14T02:16:50.242Z,84.11
2018-02-14T02:17:50.215Z,83.64
2018-02-14T02:18:50.191Z,84.30
2018-02-14T02:19:50.164Z,84.01
2018-02-14T02:20:50.143Z,83.73
2018-02-14T02:21:50.108Z,83.92
2018-02-14T02:22:50.080Z,83.83
2018-02-14T02:23:50.055Z,83.92
2018-02-14T02:24:50.028Z,84.30
2018-02-14T02:25:50.000Z,84.20
2018-02-14T02:26:49.994Z,84.30
2018-02-14T02:27:49.947Z,84.11
2018-02-14T02:28:49.918Z,84.77
2018-02-14T02:29:49.896Z,84.58
2018-02-14T02:30:49.867Z,84.68
2018-02-14T02:31:49.841Z,84.68
2018-02-14T02:32:49.811Z,84.68
2018-02-14T02:33:49.937Z,84.58
2018-02-14T02:34:49.762Z,84.68
2018-02-14T02:35:49.735Z,84.49
2018-02-14T02:36:49.716Z,84.77
2018-02-14T02:37:49.678Z,84.96
2018-02-14T02:38:49.649Z,85.24
2018-02-14T02:39:49.649Z,85.62
2018-02-14T02:40:49.594Z,85.15
2018-02-14T02:41:49.566Z,85.24
2018-02-14T02:42:49.543Z,85.53
2018-02-14T02:43:49.519Z,85.43
2018-02-14T02:44:49.483Z,86.10
2018-02-14T02:45:49.457Z,85.53
2018-02-14T02:46:49.433Z,85.15
2018-02-14T02:47:49.405Z,84.49
2018-02-14T02:48:49.377Z,84.49
2018-02-14T02:49:49.353Z,84.39
2018-02-14T02:50:49.322Z,84.68
2018-02-14T02:51:49.295Z,84.68
2018-02-14T02:52:49.281Z,84.86
2018-02-14T02:53:49.242Z,84.49
2018-02-14T02:54:49.223Z,84.20
2018-02-14T02:55:49.187Z,84.68
2018-02-14T02:56:49.167Z,84.20
2018-02-14T02:57:49.133Z,84.96
2018-02-14T02:58:49.106Z,84.96
2018-02-14T02:59:49.081Z,84.68
2018-02-14T03:00:49.052Z,84.68
2018-02-14T03:01:49.031Z,84.77
2018-02-14T03:02:48.995Z,84.58
2018-02-14T03:03:48.970Z,84.77
2018-02-14T03:04:48.940Z,84.77
2018-02-14T03:05:48.912Z,84.77
2018-02-14T03:06:48.886Z,84.68
2018-02-14T03:07:48.861Z,84.58
2018-02-14T03:08:48.832Z,84.58
2018-02-14T03:09:48.816Z,84.77
2018-02-14T03:10:48.781Z,84.77
2018-02-14T03:11:48.752Z,84.49
2018-02-14T03:12:48.801Z,84.58
2018-02-14T03:13:48.703Z,84.58
2018-02-14T03:14:48.668Z,84.58
2018-02-14T03:15:48.743Z,84.77
2018-02-14T03:16:48.615Z,84.68
2018-02-14T03:17:48.596Z,85.05
2018-02-14T03:18:48.561Z,84.68
2018-02-14T03:19:48.533Z,84.68
2018-02-14T03:20:48.508Z,85.05
2018-02-14T03:21:48.477Z,85.15
2018-02-14T03:22:48.451Z,85.15
2018-02-14T03:23:48.423Z,85.15
2018-02-14T03:24:48.399Z,85.05
2018-02-14T03:25:48.370Z,84.77
2018-02-14T03:26:48.346Z,84.49
2018-02-14T03:27:48.318Z,84.11
2018-02-14T03:28:48.290Z,84.11
2018-02-14T03:29:48.258Z,84.86
2018-02-14T03:30:48.232Z,84.77
2018-02-14T03:31:48.208Z,84.77
2018-02-14T03:32:48.179Z,84.39
2018-02-14T03:33:48.153Z,84.39
2018-02-14T03:34:48.134Z,84.30
2018-02-14T03:35:48.097Z,84.58
2018-02-14T03:36:48.071Z,84.77
2018-02-14T03:37:48.050Z,85.05
2018-02-14T03:38:48.017Z,84.68
2018-02-14T03:39:47.988Z,84.96
2018-02-14T03:40:47.971Z,85.15
2018-02-14T03:41:47.934Z,85.15
2018-02-14T03:42:47.905Z,84.96
2018-02-14T03:43:47.877Z,84.96
2018-02-14T03:44:47.850Z,84.96
2018-02-14T03:45:47.824Z,84.68
2018-02-14T03:46:47.885Z,85.15
2018-02-14T03:47:47.770Z,85.05
2018-02-14T03:48:47.739Z,85.05
2018-02-14T03:49:47.714Z,84.77
2018-02-14T03:50:47.686Z,85.15
2018-02-14T03:51:47.660Z,85.15
2018-02-14T03:52:47.628Z,85.24
2018-02-14T03:53:47.604Z,85.15
2018-02-14T03:54:47.599Z,85.34
2018-02-14T03:55:47.548Z,85.53
2018-02-14T03:56:47.524Z,85.72
2018-02-14T03:57:47.523Z,85.77
2018-02-14T03:58:47.475Z,85.43
2018-02-14T03:59:47.437Z,86.29
2018-02-14T04:00:47.413Z,86.05
2018-02-14T04:01:47.383Z,86.05
2018-02-14T04:02:47.358Z,86.52
2018-02-14T04:03:47.333Z,85.91
2018-02-14T04:04:47.304Z,86.00
2018-02-14T04:05:47.277Z,86.00
2018-02-14T04:06:47.243Z,86.19
2018-02-14T04:07:47.220Z,86.29
2018-02-14T04:08:47.192Z,86.29
2018-02-14T04:09:47.163Z,86.10
2018-02-14T04:10:47.145Z,86.43
2018-02-14T04:11:47.112Z,85.86
2018-02-14T04:12:47.086Z,85.91
2018-02-14T04:13:47.054Z,86.19
2018-02-14T04:14:47.026Z,86.15
2018-02-14T04:15:47.002Z,86.10
2018-02-14T04:16:46.971Z,86.38
2018-02-14T04:17:46.944Z,85.68
2018-02-14T04:18:46.916Z,85.81
2018-02-14T04:19:46.890Z,86.10
2018-02-14T04:20:46.860Z,86.00
2018-02-14T04:21:46.841Z,86.05
2018-02-14T04:22:46.820Z,85.77
2018-02-14T04:23:46.778Z,86.80
2018-02-14T04:24:46.752Z,86.05
2018-02-14T04:25:46.737Z,86.43
2018-02-14T04:26:46.695Z,86.71
2018-02-14T04:27:46.670Z,86.43
2018-02-14T04:28:46.641Z,85.96
2018-02-14T04:29:46.611Z,86.62
2018-02-14T04:30:46.584Z,86.43
2018-02-14T04:31:46.559Z,86.62
2018-02-14T04:32:46.528Z,86.52
2018-02-14T04:33:46.501Z,86.52
2018-02-14T04:34:46.474Z,85.96
2018-02-14T04:35:46.448Z,86.24
2018-02-14T04:36:46.423Z,86.80
2018-02-14T04:37:46.390Z,86.71
2018-02-14T04:38:46.361Z,86.52
2018-02-14T04:39:46.337Z,86.80
2018-02-14T04:40:46.307Z,86.80
2018-02-14T04:41:46.279Z,86.52
2018-02-14T04:42:46.255Z,86.52
2018-02-14T04:43:46.228Z,86.80
2018-02-14T04:44:46.198Z,86.62
2018-02-14T04:45:46.171Z,86.52
2018-02-14T04:46:46.143Z,86.33
2018-02-14T04:47:46.117Z,86.90
2018-02-14T04:48:46.088Z,86.90
2018-02-14T04:49:46.081Z,86.33
2018-02-14T04:50:46.034Z,86.90
2018-02-14T04:51:46.005Z,86.80
2018-02-14T04:52:45.977Z,86.80
2018-02-14T04:53:45.949Z,86.99
2018-02-14T04:54:45.924Z,86.80
2018-02-14T04:55:45.896Z,87.09
2018-02-14T04:56:45.866Z,87.37
2018-02-14T04:57:45.836Z,86.80
2018-02-14T04:58:45.841Z,86.71
2018-02-14T04:59:45.780Z,86.80
2018-02-14T05:00:45.758Z,86.71
2018-02-14T05:01:45.829Z,86.80
2018-02-14T05:02:45.696Z,87.09
2018-02-14T05:03:45.669Z,86.99
2018-02-14T05:04:45.683Z,87.18
2018-02-14T05:05:45.622Z,87.18
2018-02-14T05:06:45.586Z,87.28
2018-02-14T05:07:45.559Z,87.18
2018-02-14T05:08:45.533Z,87.37
2018-02-14T05:09:45.512Z,87.47
2018-02-14T05:10:45.475Z,87.37
2018-02-14T05:11:45.446Z,87.37
2018-02-14T05:12:45.418Z,87.37
2018-02-14T05:13:45.401Z,87.28
2018-02-14T05:14:45.363Z,87.09
2018-02-14T05:15:45.338Z,87.37
2018-02-14T05:16:45.308Z,87.47
2018-02-14T05:17:45.277Z,87.37
2018-02-14T05:18:45.252Z,87.09
2018-02-14T05:19:45.227Z,87.28
2018-02-14T05:20:45.195Z,87.47
2018-02-14T05:21:45.172Z,87.66
2018-02-14T05:22:45.143Z,87.09
2018-02-14T05:23:45.114Z,87.56
2018-02-14T05:24:45.087Z,87.66
2018-02-14T05:25:45.056Z,87.37
2018-02-14T05:26:45.028Z,87.28
2018-02-14T05:27:45.001Z,87.47
2018-02-14T05:28:44.990Z,87.47
2018-02-14T05:29:44.943Z,87.18
2018-02-14T05:30:44.917Z,87.47
2018-02-14T05:31:44.891Z,87.09
2018-02-14T05:32:44.861Z,87.56
2018-02-14T05:33:44.836Z,87.94
2018-02-14T05:34:44.807Z,87.75
2018-02-14T05:35:44.777Z,87.94
2018-02-14T05:36:44.745Z,87.66
2018-02-14T05:37:44.724Z,87.09
2018-02-14T05:38:44.701Z,87.47
2018-02-14T05:39:44.672Z,87.09
2018-02-14T05:40:44.749Z,87.37
2018-02-14T05:41:44.610Z,87.28
2018-02-14T05:42:44.579Z,87.75
2018-02-14T05:43:44.618Z,87.85
2018-02-14T05:44:44.525Z,87.28
2018-02-14T05:45:44.504Z,87.94
2018-02-14T05:46:44.471Z,87.66
2018-02-14T05:47:44.439Z,88.04
2018-02-14T05:48:44.416Z,87.66
2018-02-14T05:49:44.384Z,88.13
2018-02-14T05:50:44.366Z,87.18
2018-02-14T05:51:44.347Z,87.09
2018-02-14T05:52:44.301Z,87.66
2018-02-14T05:53:44.281Z,87.37
2018-02-14T05:54:44.243Z,87.28
2018-02-14T05:55:44.221Z,87.18
2018-02-14T05:56:44.188Z,87.37
2018-02-14T05:57:44.167Z,87.37
2018-02-14T05:58:44.133Z,87.09
2018-02-14T05:59:44.107Z,87.56
2018-02-14T06:00:44.076Z,87.47
2018-02-14T06:01:44.049Z,87.09
2018-02-14T06:02:44.022Z,87.37
2018-02-14T06:03:43.997Z,87.47
2018-02-14T06:04:43.984Z,87.47
2018-02-14T06:05:43.936Z,87.28
2018-02-14T06:06:43.908Z,87.28
2018-02-14T06:07:43.881Z,87.28
2018-02-14T06:08:43.871Z,87.75
2018-02-14T06:09:43.830Z,88.32
2018-02-14T06:10:43.799Z,87.94
2018-02-14T06:11:43.768Z,87.85
2018-02-14T06:12:43.741Z,87.18
2018-02-14T06:13:43.716Z,87.85
2018-02-14T06:14:43.684Z,87.66
2018-02-14T06:15:43.657Z,87.66
2018-02-14T06:16:43.627Z,87.37
2018-02-14T06:17:43.600Z,88.23
2018-02-14T06:18:43.575Z,87.85
2018-02-14T06:19:43.564Z,87.66
2018-02-14T06:20:43.515Z,88.23
2018-02-14T06:21:43.498Z,88.13
2018-02-14T06:22:43.477Z,88.13
2018-02-14T06:23:43.431Z,87.85
2018-02-14T06:24:43.403Z,87.66
2018-02-14T06:25:43.389Z,87.94
2018-02-14T06:26:43.348Z,88.04
2018-02-14T06:27:43.319Z,87.75
2018-02-14T06:28:43.295Z,87.85
2018-02-14T06:29:43.264Z,87.85
2018-02-14T06:30:43.242Z,87.75
2018-02-14T06:31:43.210Z,87.66
2018-02-14T06:32:43.180Z,87.56
2018-02-14T06:33:43.148Z,87.47
2018-02-14T06:34:43.123Z,87.66
2018-02-14T06:35:43.092Z,87.47
2018-02-14T06:36:43.066Z,87.94
2018-02-14T06:37:43.035Z,88.32
2018-02-14T06:38:43.007Z,87.94
2018-02-14T06:39:42.982Z,87.66
2018-02-14T06:40:42.961Z,87.75
2018-02-14T06:41:42.932Z,87.56
2018-02-14T06:42:42.894Z,87.56
2018-02-14T06:43:42.867Z,87.85
2018-02-14T06:44:42.836Z,87.56
2018-02-14T06:45:42.813Z,87.85
2018-02-14T06:46:42.781Z,87.85
2018-02-14T06:47:42.752Z,88.04
2018-02-14T06:48:42.723Z,87.75
2018-02-14T06:49:42.696Z,87.09
2018-02-14T06:50:42.833Z,87.18
2018-02-14T06:51:42.643Z,87.18
2018-02-14T06:52:42.611Z,87.37
2018-02-14T06:53:42.611Z,87.37
2018-02-14T06:54:42.557Z,87.47
2018-02-14T06:55:42.530Z,87.18
2018-02-14T06:56:42.503Z,86.80
2018-02-14T06:57:42.474Z,87.37
2018-02-14T06:58:42.459Z,87.47
2018-02-14T06:59:42.414Z,87.66
2018-02-14T07:00:42.388Z,87.28
2018-02-14T07:01:42.375Z,87.37
2018-02-14T07:02:42.329Z,86.71
2018-02-14T07:03:42.300Z,86.90
2018-02-14T07:04:42.271Z,86.90
2018-02-14T07:05:42.242Z,86.99
2018-02-14T07:06:42.214Z,86.99
2018-02-14T07:07:42.189Z,86.99
2018-02-14T07:08:42.178Z,86.71
2018-02-14T07:09:42.146Z,86.62
2018-02-14T07:10:42.110Z,87.09
2018-02-14T07:11:42.074Z,87.09
2018-02-14T07:12:42.043Z,86.71
2018-02-14T07:13:42.018Z,86.90
2018-02-14T07:14:41.990Z,86.24
2018-02-14T07:15:41.960Z,86.80
2018-02-14T07:16:41.933Z,86.62
2018-02-14T07:17:41.906Z,86.52
2018-02-14T07:18:41.878Z,86.33
2018-02-14T07:19:41.847Z,86.71
2018-02-14T07:20:41.818Z,86.52
2018-02-14T07:21:41.791Z,86.52
2018-02-14T07:22:41.762Z,85.86
2018-02-14T07:23:41.774Z,86.05
2018-02-14T07:24:41.706Z,85.86
2018-02-14T07:25:41.679Z,85.96
2018-02-14T07:26:41.729Z,85.96
2018-02-14T07:27:41.623Z,85.86
2018-02-14T07:28:41.593Z,85.96
2018-02-14T07:29:41.573Z,86.43
2018-02-14T07:30:41.538Z,85.96
2018-02-14T07:31:41.508Z,85.49
2018-02-14T07:32:41.481Z,85.11
2018-02-14T07:33:41.452Z,85.01
2018-02-14T07:34:41.425Z,85.01
2018-02-14T07:35:41.401Z,84.73
2018-02-14T07:36:41.378Z,84.54
2018-02-14T07:37:41.345Z,84.26
2018-02-14T07:38:41.316Z,84.30
2018-02-14T07:39:41.294Z,84.26
2018-02-14T07:40:41.284Z,84.26
2018-02-14T07:41:41.230Z,84.01
2018-02-14T07:42:41.204Z,83.97
2018-02-14T07:43:41.182Z,84.30
2018-02-14T07:44:41.148Z,84.30
2018-02-14T07:45:41.119Z,83.92
2018-02-14T07:46:41.092Z,83.73
2018-02-14T07:47:41.064Z,83.83
2018-02-14T07:48:41.036Z,84.11
2018-02-14T07:49:41.007Z,83.07
2018-02-14T07:50:40.978Z,83.54
2018-02-14T07:51:40.954Z,83.54
2018-02-14T07:52:40.922Z,83.07
2018-02-14T07:53:40.896Z,82.79
2018-02-14T07:54:40.869Z,82.98
2018-02-14T07:55:40.841Z,82.60
2018-02-14T07:56:40.812Z,82.60
2018-02-14T07:57:40.791Z,82.50
2018-02-14T07:58:40.757Z,82.22
2018-02-14T07:59:40.732Z,82.50
2018-02-14T08:00:40.701Z,82.31
2018-02-14T08:01:40.674Z,82.31
2018-02-14T08:02:40.647Z,82.12
2018-02-14T08:03:40.621Z,81.93
2018-02-14T08:04:40.611Z,82.03
2018-02-14T08:05:40.653Z,81.74
2018-02-14T08:06:40.544Z,81.56
2018-02-14T08:07:40.519Z,81.65
2018-02-14T08:08:40.533Z,81.65
2018-02-14T08:09:40.451Z,81.74
2018-02-14T08:10:40.423Z,81.65
2018-02-14T08:11:40.407Z,81.37
2018-02-14T08:12:40.370Z,81.09
2018-02-14T08:13:40.341Z,80.90
2018-02-14T08:14:40.316Z,80.71
2018-02-14T08:15:40.289Z,80.99
2018-02-14T08:16:40.261Z,80.52
2018-02-14T08:17:40.231Z,80.43
2018-02-14T08:18:40.210Z,79.86
2018-02-14T08:19:40.185Z,79.57
2018-02-14T08:20:40.160Z,79.86
2018-02-14T08:21:40.130Z,80.05
2018-02-14T08:22:40.092Z,79.86
2018-02-14T08:23:40.063Z,79.29
2018-02-14T08:24:40.039Z,79.19
2018-02-14T08:25:40.009Z,79.29
2018-02-14T08:26:39.981Z,79.10
2018-02-14T08:27:39.954Z,79.19
2018-02-14T08:28:39.936Z,78.86
2018-02-14T08:29:39.905Z,78.67
2018-02-14T08:30:40.025Z,79.24
2018-02-14T08:31:39.851Z,79.05
2018-02-14T08:32:39.819Z,78.95
2018-02-14T08:33:39.810Z,78.58
2018-02-14T08:34:39.763Z,78.86
2018-02-14T08:35:39.733Z,78.67
2018-02-14T08:36:39.722Z,78.86
2018-02-14T08:37:39.687Z,78.01
2018-02-14T08:38:39.653Z,78.39
2018-02-14T08:39:39.627Z,77.72
2018-02-14T08:40:39.598Z,77.72
2018-02-14T08:41:39.569Z,77.34
2018-02-14T08:42:39.547Z,77.91
2018-02-14T08:43:39.520Z,77.34
2018-02-14T08:44:39.496Z,77.34
2018-02-14T08:45:39.462Z,77.53
2018-02-14T08:46:39.434Z,77.34
2018-02-14T08:47:39.432Z,77.25
2018-02-14T08:48:39.380Z,77.15
2018-02-14T08:49:39.355Z,76.87
2018-02-14T08:50:39.325Z,76.97
2018-02-14T08:51:39.306Z,76.97
2018-02-14T08:52:39.278Z,76.78
2018-02-14T08:53:39.244Z,76.78
2018-02-14T08:54:39.217Z,76.50
2018-02-14T08:55:39.198Z,76.59
2018-02-14T08:56:39.164Z,76.59
2018-02-14T08:57:39.134Z,76.34
2018-02-14T08:58:39.117Z,75.49
2018-02-14T08:59:39.093Z,75.12
2018-02-14T09:00:39.054Z,74.98
2018-02-14T09:01:39.034Z,75.12
2018-02-14T09:02:38.999Z,74.64
2018-02-14T09:03:38.974Z,74.64
2018-02-14T09:04:38.946Z,74.36
2018-02-14T09:05:38.932Z,74.07
2018-02-14T09:06:38.896Z,74.17
2018-02-14T09:07:38.869Z,74.17
2018-02-14T09:08:38.845Z,73.79
2018-02-14T09:09:38.823Z,74.45
2018-02-14T09:10:38.785Z,73.60
2018-02-14T09:11:38.762Z,73.60
2018-02-14T09:12:38.751Z,73.41
2018-02-14T09:13:38.707Z,72.85
2018-02-14T09:14:38.685Z,72.37
2018-02-14T09:15:38.653Z,72.66
2018-02-14T09:16:38.624Z,72.28
2018-02-14T09:17:38.598Z,72.28
2018-02-14T09:18:38.573Z,71.90
2018-02-14T09:19:38.544Z,71.71
2018-02-14T09:20:38.516Z,71.61
2018-02-14T09:21:38.492Z,71.14
2018-02-14T09:22:38.466Z,71.23
2018-02-14T09:23:38.446Z,70.86
2018-02-14T09:24:38.410Z,70.61
2018-02-14T09:25:38.383Z,70.51
2018-02-14T09:26:38.360Z,70.98
2018-02-14T09:27:38.332Z,69.95
2018-02-14T09:28:38.306Z,70.04
2018-02-14T09:29:38.279Z,70.14
2018-02-14T09:30:38.252Z,69.19
2018-02-14T09:31:38.232Z,68.65
2018-02-14T09:32:38.200Z,66.22
2018-02-14T09:33:38.172Z,63.04
2018-02-14T09:34:38.233Z,60.98
2018-02-14T09:35:38.121Z,58.73
2018-02-14T09:36:38.095Z,57.21
2018-02-14T09:37:38.082Z,55.89
2018-02-14T09:38:38.044Z,55.04
2018-02-14T09:39:38.019Z,54.85
2018-02-14T09:40:37.994Z,54.94
2018-02-14T09:41:37.968Z,54.75
2018-02-14T09:42:38.067Z,54.78
2018-02-14T09:43:37.922Z,53.54
2018-02-14T09:44:37.899Z,53.35
2018-02-14T09:45:37.887Z,52.91
2018-02-14T09:46:37.852Z,51.86
2018-02-14T09:47:37.830Z,50.62
2018-02-14T09:48:37.862Z,49.98
2018-02-14T09:49:37.791Z,49.51
2018-02-14T09:50:37.763Z,48.94
2018-02-14T09:51:37.748Z,48.56
2018-02-14T09:52:37.719Z,48.56
2018-02-14T09:53:37.701Z,48.08
2018-02-14T09:54:37.682Z,47.80
2018-02-14T09:55:37.669Z,46.92
2018-02-14T09:56:37.638Z,46.85
2018-02-14T09:57:37.616Z,46.66
2018-02-14T09:58:37.605Z,46.19
2018-02-14T09:59:37.577Z,46.56
2018-02-14T10:00:37.566Z,46.40
2018-02-14T10:01:37.594Z,44.87
2018-02-14T10:02:37.519Z,44.21
2018-02-14T10:03:37.500Z,43.76
2018-02-14T10:04:37.481Z,42.80
2018-02-14T10:05:37.469Z,42.61
2018-02-14T10:06:37.448Z,42.35
2018-02-14T10:07:37.424Z,41.40
2018-02-14T10:08:37.406Z,40.35
2018-02-14T10:09:37.395Z,40.43
2018-02-14T10:10:37.367Z,41.49
2018-02-14T10:11:37.352Z,41.40
2018-02-14T10:12:37.345Z,41.11
2018-02-14T10:13:37.314Z,40.56
2018-02-14T10:14:37.297Z,39.90
2018-02-14T10:15:37.279Z,39.42
2018-02-14T10:16:37.269Z,39.34
2018-02-14T10:17:37.246Z,39.23
2018-02-14T10:18:37.226Z,39.61
2018-02-14T10:19:37.220Z,39.80
2018-02-14T10:20:37.273Z,39.51
2018-02-14T10:21:37.186Z,39.61
2018-02-14T10:22:37.159Z,39.51
2018-02-14T10:23:37.201Z,38.85
2018-02-14T10:24:37.123Z,39.23
2018-02-14T10:25:37.106Z,39.34
2018-02-14T10:26:37.097Z,38.96
2018-02-14T10:27:37.076Z,39.04
2018-02-14T10:28:37.056Z,39.42
2018-02-14T10:29:37.046Z,39.51
2018-02-14T10:30:37.022Z,39.42
2018-02-14T10:31:37.016Z,39.42
2018-02-14T10:32:36.995Z,38.96
2018-02-14T10:33:36.971Z,38.47
2018-02-14T10:34:36.955Z,38.64
2018-02-14T10:35:36.940Z,39.31
2018-02-14T10:36:36.921Z,39.40
2018-02-14T10:37:36.907Z,40.16
2018-02-14T10:38:36.900Z,39.87
2018-02-14T10:39:36.872Z,39.90
2018-02-14T10:40:36.854Z,39.63
2018-02-14T10:41:36.841Z,38.68
2018-02-14T10:42:36.830Z,38.10
2018-02-14T10:43:36.803Z,37.82
2018-02-14T10:44:36.785Z,37.82
2018-02-14T10:45:36.775Z,37.92
2018-02-14T10:46:36.753Z,37.25
2018-02-14T10:47:36.764Z,37.71
2018-02-14T10:48:36.727Z,37.80
2018-02-14T10:49:36.702Z,37.90
2018-02-14T10:50:36.698Z,38.66
2018-02-14T10:51:36.671Z,38.66
2018-02-14T10:52:36.652Z,38.66
2018-02-14T10:53:36.635Z,37.90
2018-02-14T10:54:36.624Z,37.80
2018-02-14T10:55:36.600Z,37.44
2018-02-14T10:56:36.579Z,36.68
2018-02-14T10:57:36.563Z,36.12
2018-02-14T10:58:36.549Z,35.64
2018-02-14T10:59:36.544Z,35.36
2018-02-14T11:00:36.511Z,35.27
2018-02-14T11:01:36.501Z,35.25
2018-02-14T11:02:36.481Z,35.82
2018-02-14T11:03:36.457Z,35.91
2018-02-14T11:04:36.440Z,36.01
2018-02-14T11:05:36.423Z,35.91
2018-02-14T11:06:36.407Z,36.20
2018-02-14T11:07:36.388Z,36.30
2018-02-14T11:08:36.417Z,36.39
2018-02-14T11:09:36.363Z,36.12
2018-02-14T11:10:36.346Z,35.53
2018-02-14T11:11:36.334Z,35.72
2018-02-14T11:12:36.299Z,36.28
2018-02-14T11:13:36.279Z,37.21
2018-02-14T11:14:36.262Z,37.59
2018-02-14T11:15:36.261Z,37.90
2018-02-14T11:16:36.226Z,37.90
2018-02-14T11:17:36.207Z,37.99
2018-02-14T11:18:36.186Z,37.25
2018-02-14T11:19:36.174Z,36.96
2018-02-14T11:20:36.149Z,36.77
2018-02-14T11:21:36.132Z,36.30
2018-02-14T11:22:36.123Z,36.66
2018-02-14T11:23:36.095Z,37.42
2018-02-14T11:24:36.075Z,37.61
2018-02-14T11:25:36.095Z,37.15
2018-02-14T11:26:36.035Z,36.58
2018-02-14T11:27:36.017Z,37.04
2018-02-14T11:28:35.997Z,37.04
2018-02-14T11:29:35.981Z,37.15
2018-02-14T11:30:35.972Z,37.44
2018-02-14T11:31:35.947Z,36.85
2018-02-14T11:32:35.918Z,37.61
2018-02-14T11:33:35.915Z,37.88
2018-02-14T11:34:35.884Z,38.64
2018-02-14T11:35:35.871Z,38.66
2018-02-14T11:36:35.854Z,38.75
2018-02-14T11:37:35.818Z,38.47
2018-02-14T11:38:35.806Z,37.92
2018-02-14T11:39:35.783Z,37.54
2018-02-14T11:40:35.760Z,36.77
2018-02-14T11:41:35.747Z,36.22
2018-02-14T11:42:35.727Z,36.39
2018-02-14T11:43:35.698Z,36.49
2018-02-14T11:44:35.677Z,36.94
2018-02-14T11:45:35.663Z,37.80
2018-02-14T11:46:35.637Z,37.80
2018-02-14T11:47:35.623Z,37.80
2018-02-14T11:48:35.601Z,38.09
2018-02-14T11:49:35.579Z,37.23
2018-02-14T11:50:35.556Z,37.21
2018-02-14T11:51:35.539Z,37.12
2018-02-14T11:52:35.516Z,37.23
2018-02-14T11:53:35.494Z,36.58
2018-02-14T11:54:35.476Z,35.44
2018-02-14T11:55:35.574Z,34.88
2018-02-14T11:56:35.435Z,34.48
2018-02-14T11:57:35.429Z,35.15
2018-02-14T11:58:35.399Z,34.87
2018-02-14T11:59:35.377Z,34.39
2018-02-14T12:00:35.350Z,34.09
2018-02-14T12:01:35.329Z,34.66
2018-02-14T12:02:35.316Z,34.66
2018-02-14T12:03:35.294Z,34.07
2018-02-14T12:04:35.267Z,34.17
2018-02-14T12:05:35.245Z,34.36
2018-02-14T12:06:35.239Z,34.05
2018-02-14T12:07:35.216Z,34.03
2018-02-14T12:08:35.197Z,34.34
2018-02-14T12:09:35.166Z,34.81
2018-02-14T12:10:35.148Z,34.63
2018-02-14T12:11:35.130Z,33.97
2018-02-14T12:12:35.101Z,33.70
2018-02-14T12:13:35.080Z,33.31
2018-02-14T12:14:35.054Z,33.59
2018-02-14T12:15:35.034Z,33.77
2018-02-14T12:16:35.010Z,34.34
2018-02-14T12:17:35.070Z,34.44
2018-02-14T12:18:34.969Z,34.91
2018-02-14T12:19:34.950Z,34.05
2018-02-14T12:20:34.922Z,34.32
2018-02-14T12:21:34.902Z,34.61
2018-02-14T12:22:34.882Z,34.44
2018-02-14T12:23:34.857Z,34.53
2018-02-14T12:24:34.837Z,34.15
2018-02-14T12:25:34.876Z,33.69
2018-02-14T12:26:34.790Z,33.03
2018-02-14T12:27:34.776Z,32.91
2018-02-14T12:28:34.762Z,33.48
2018-02-14T12:29:34.722Z,33.47
2018-02-14T12:30:34.710Z,34.23
2018-02-14T12:31:34.686Z,34.15
2018-02-14T12:32:34.656Z,33.96
2018-02-14T12:33:34.644Z,33.86
2018-02-14T12:34:34.612Z,34.44
2018-02-14T12:35:34.588Z,34.24
2018-02-14T12:36:34.573Z,34.44
2018-02-14T12:37:34.545Z,34.63
2018-02-14T12:38:34.528Z,34.44
2018-02-14T12:39:34.499Z,34.89
2018-02-14T12:40:34.474Z,34.51
2018-02-14T12:41:34.460Z,34.51
2018-02-14T12:42:34.430Z,34.34
2018-02-14T12:43:34.408Z,34.05
2018-02-14T12:44:34.384Z,34.51
2018-02-14T12:45:34.366Z,35.83
2018-02-14T12:46:34.350Z,37.52
2018-02-14T12:47:34.337Z,38.85
2018-02-14T12:48:34.328Z,39.32
2018-02-14T12:49:34.276Z,39.79
2018-02-14T12:50:34.417Z,39.98
2018-02-14T12:51:34.227Z,40.37
2018-02-14T12:52:34.207Z,39.78